SCIE 240600Z 18003KT 140V200 CAVOK 09/06 Q1021